createdAt,value
2018-07-26T00:00:24.210Z,0.00
2018-07-26T00:01:24.219Z,0.00
2018-07-26T00:02:24.210Z,0.00
2018-07-26T00:03:24.209Z,0.00
2018-07-26T00:04:24.214Z,0.00
2018-07-26T00:05:24.219Z,0.00
2018-07-26T00:06:24.219Z,0.00
2018-07-26T00:07:24.217Z,0.00
2018-07-26T00:08:24.219Z,0.00
2018-07-26T00:09:24.224Z,0.00
2018-07-26T00:10:24.225Z,0.00
2018-07-26T00:11:24.230Z,0.00
2018-07-26T00:12:24.232Z,0.00
2018-07-26T00:13:24.235Z,0.00
2018-07-26T00:14:24.236Z,0.00
2018-07-26T00:15:24.233Z,0.00
2018-07-26T00:16:24.237Z,0.00
2018-07-26T00:17:24.240Z,0.00
2018-07-26T00:18:24.239Z,0.00
2018-07-26T00:19:24.247Z,0.00
2018-07-26T00:20:24.249Z,0.00
2018-07-26T00:21:24.249Z,0.00
2018-07-26T00:22:24.396Z,0.00
2018-07-26T00:23:24.254Z,0.00
2018-07-26T00:24:24.257Z,0.00
2018-07-26T00:25:24.259Z,0.00
2018-07-26T00:26:24.258Z,0.00
2018-07-26T00:27:24.258Z,0.00
2018-07-26T00:28:24.258Z,0.00
2018-07-26T00:29:24.261Z,0.00
2018-07-26T00:30:24.263Z,0.00
2018-07-26T00:31:24.269Z,0.00
2018-07-26T00:32:24.271Z,0.00
2018-07-26T00:33:24.274Z,0.00
2018-07-26T00:34:24.276Z,0.00
2018-07-26T00:35:24.271Z,0.00
2018-07-26T00:36:24.273Z,0.00
2018-07-26T00:37:24.281Z,0.00
2018-07-26T00:38:24.283Z,0.00
2018-07-26T00:39:24.280Z,0.00
2018-07-26T00:40:24.281Z,0.00
2018-07-26T00:41:24.310Z,0.00
2018-07-26T00:42:24.283Z,0.00
2018-07-26T00:43:24.289Z,0.00
2018-07-26T00:44:24.291Z,0.00
2018-07-26T00:45:24.295Z,0.00
2018-07-26T00:46:24.294Z,0.00
2018-07-26T00:47:24.291Z,0.00
2018-07-26T00:48:24.294Z,0.00
2018-07-26T00:49:24.298Z,0.00
2018-07-26T00:50:24.296Z,0.00
2018-07-26T00:51:24.303Z,0.00
2018-07-26T00:52:24.306Z,0.00
2018-07-26T00:53:24.301Z,0.00
2018-07-26T00:54:24.305Z,0.00
2018-07-26T00:55:24.309Z,0.00
2018-07-26T00:56:24.312Z,0.00
2018-07-26T00:57:24.311Z,0.00
2018-07-26T00:58:24.312Z,0.00
2018-07-26T00:59:24.310Z,0.00
2018-07-26T01:00:24.314Z,0.00
2018-07-26T01:01:24.315Z,0.00
2018-07-26T01:02:24.315Z,0.00
2018-07-26T01:03:24.322Z,0.00
2018-07-26T01:04:24.327Z,0.00
2018-07-26T01:05:24.325Z,0.00
2018-07-26T01:06:24.324Z,0.00
2018-07-26T01:07:24.322Z,0.00
2018-07-26T01:08:24.324Z,0.00
2018-07-26T01:09:24.331Z,0.00
2018-07-26T01:10:24.331Z,0.00
2018-07-26T01:11:24.328Z,0.00
2018-07-26T01:12:24.329Z,0.00
2018-07-26T01:13:24.331Z,0.00
2018-07-26T01:14:24.333Z,0.00
2018-07-26T01:15:24.340Z,0.00
2018-07-26T01:16:24.340Z,0.00
2018-07-26T01:17:24.343Z,0.00
2018-07-26T01:18:24.343Z,0.00
2018-07-26T01:19:24.340Z,0.00
2018-07-26T01:20:24.342Z,0.00
2018-07-26T01:21:24.376Z,0.00
2018-07-26T01:22:24.343Z,0.00
2018-07-26T01:23:24.349Z,0.00
2018-07-26T01:24:24.350Z,0.00
2018-07-26T01:25:24.349Z,0.00
2018-07-26T01:26:24.348Z,0.00
2018-07-26T01:27:24.354Z,0.00
2018-07-26T01:28:24.356Z,0.00
2018-07-26T01:29:24.358Z,0.00
2018-07-26T01:30:24.364Z,0.00
2018-07-26T01:31:24.357Z,0.00
2018-07-26T01:32:24.357Z,0.00
2018-07-26T01:33:24.360Z,0.00
2018-07-26T01:34:24.362Z,0.00
2018-07-26T01:35:24.366Z,0.00
2018-07-26T01:36:24.368Z,0.00
2018-07-26T01:37:24.369Z,0.00
2018-07-26T01:38:24.369Z,0.00
2018-07-26T01:39:24.366Z,0.00
2018-07-26T01:40:24.369Z,0.00
2018-07-26T01:41:24.374Z,0.00
2018-07-26T01:42:24.375Z,0.00
2018-07-26T01:43:24.372Z,0.00
2018-07-26T01:44:24.374Z,0.00
2018-07-26T01:45:24.375Z,0.00
2018-07-26T01:46:24.375Z,0.00
2018-07-26T01:47:24.383Z,0.00
2018-07-26T01:48:24.383Z,0.00
2018-07-26T01:49:24.386Z,0.00
2018-07-26T01:50:24.386Z,0.00
2018-07-26T01:51:24.382Z,0.00
2018-07-26T01:52:24.386Z,0.00
2018-07-26T01:53:24.386Z,0.00
2018-07-26T01:54:24.385Z,0.00
2018-07-26T01:55:24.391Z,0.00
2018-07-26T01:56:24.394Z,0.00
2018-07-26T01:57:24.390Z,0.00
2018-07-26T01:58:24.390Z,0.00
2018-07-26T01:59:24.397Z,0.00
2018-07-26T02:00:24.400Z,0.00
2018-07-26T02:01:24.403Z,0.00
2018-07-26T02:02:24.403Z,0.00
2018-07-26T02:03:24.398Z,0.00
2018-07-26T02:04:24.399Z,0.00
2018-07-26T02:05:24.400Z,0.00
2018-07-26T02:06:24.400Z,0.00
2018-07-26T02:07:24.405Z,0.00
2018-07-26T02:08:24.407Z,0.00
2018-07-26T02:09:24.410Z,0.00
2018-07-26T02:10:24.410Z,0.00
2018-07-26T02:11:24.407Z,0.00
2018-07-26T02:12:24.409Z,0.00
2018-07-26T02:13:24.414Z,0.00
2018-07-26T02:14:24.413Z,0.00
2018-07-26T02:15:24.410Z,0.00
2018-07-26T02:16:24.413Z,0.00
2018-07-26T02:17:24.414Z,0.00
2018-07-26T02:18:24.416Z,0.00
2018-07-26T02:19:24.419Z,0.00
2018-07-26T02:20:24.421Z,0.00
2018-07-26T02:21:24.422Z,0.00
2018-07-26T02:22:24.422Z,0.00
2018-07-26T02:23:24.419Z,0.00
2018-07-26T02:24:24.424Z,0.00
2018-07-26T02:25:24.423Z,0.00
2018-07-26T02:26:24.422Z,0.00
2018-07-26T02:27:24.430Z,0.00
2018-07-26T02:28:24.430Z,0.00
2018-07-26T02:29:24.425Z,0.00
2018-07-26T02:30:24.427Z,0.00
2018-07-26T02:31:24.433Z,0.00
2018-07-26T02:32:24.434Z,0.00
2018-07-26T02:33:24.434Z,0.00
2018-07-26T02:34:24.435Z,0.00
2018-07-26T02:35:24.437Z,0.00
2018-07-26T02:36:24.433Z,0.00
2018-07-26T02:37:24.434Z,0.00
2018-07-26T02:38:24.433Z,0.00
2018-07-26T02:39:24.446Z,0.00
2018-07-26T02:40:24.440Z,0.00
2018-07-26T02:41:24.443Z,0.00
2018-07-26T02:42:24.442Z,0.00
2018-07-26T02:43:24.440Z,0.00
2018-07-26T02:44:24.439Z,0.00
2018-07-26T02:45:24.446Z,0.00
2018-07-26T02:46:24.461Z,0.00
2018-07-26T02:47:24.441Z,0.00
2018-07-26T02:48:24.444Z,0.00
2018-07-26T02:49:24.447Z,0.00
2018-07-26T02:50:24.447Z,0.00
2018-07-26T02:51:24.450Z,0.00
2018-07-26T02:52:24.450Z,0.00
2018-07-26T02:53:24.451Z,0.00
2018-07-26T02:54:24.451Z,0.00
2018-07-26T02:55:24.448Z,0.00
2018-07-26T02:56:24.449Z,0.00
2018-07-26T02:57:24.453Z,0.00
2018-07-26T02:58:24.449Z,0.00
2018-07-26T02:59:24.459Z,0.00
2018-07-26T03:00:24.458Z,0.00
2018-07-26T03:01:24.453Z,0.00
2018-07-26T03:02:24.453Z,0.00
2018-07-26T03:03:24.460Z,0.00
2018-07-26T03:04:24.462Z,0.00
2018-07-26T03:05:24.462Z,0.00
2018-07-26T03:06:24.469Z,0.00
2018-07-26T03:07:24.458Z,0.00
2018-07-26T03:08:24.458Z,0.00
2018-07-26T03:09:24.460Z,0.00
2018-07-26T03:10:24.472Z,0.00
2018-07-26T03:11:24.470Z,0.00
2018-07-26T03:12:24.467Z,0.00
2018-07-26T03:13:24.468Z,0.00
2018-07-26T03:14:24.466Z,0.00
2018-07-26T03:15:24.463Z,0.00
2018-07-26T03:16:24.465Z,0.00
2018-07-26T03:17:24.470Z,0.00
2018-07-26T03:18:24.470Z,0.00
2018-07-26T03:19:24.466Z,0.00
2018-07-26T03:20:24.468Z,0.00
2018-07-26T03:21:24.472Z,0.00
2018-07-26T03:22:24.469Z,0.00
2018-07-26T03:23:24.474Z,0.00
2018-07-26T03:24:24.475Z,0.00
2018-07-26T03:25:24.477Z,0.00
2018-07-26T03:26:24.476Z,0.00
2018-07-26T03:27:24.473Z,0.00
2018-07-26T03:28:24.473Z,0.00
2018-07-26T03:29:24.473Z,0.00
2018-07-26T03:30:24.473Z,0.00
2018-07-26T03:31:24.478Z,0.00
2018-07-26T03:32:24.478Z,0.00
2018-07-26T03:33:24.475Z,0.00
2018-07-26T03:34:24.479Z,0.00
2018-07-26T03:35:24.482Z,0.00
2018-07-26T03:36:24.480Z,0.00
2018-07-26T03:37:24.483Z,0.00
2018-07-26T03:38:24.483Z,0.00
2018-07-26T03:39:24.479Z,5.63
2018-07-26T03:40:24.479Z,5.63
2018-07-26T03:41:24.481Z,5.63
2018-07-26T03:42:24.484Z,5.63
2018-07-26T03:43:24.487Z,5.63
2018-07-26T03:44:24.490Z,5.63
2018-07-26T03:45:24.486Z,5.63
2018-07-26T03:46:24.487Z,5.63
2018-07-26T03:47:24.485Z,11.25
2018-07-26T03:48:24.483Z,11.25
2018-07-26T03:49:24.489Z,11.25
2018-07-26T03:50:24.489Z,11.25
2018-07-26T03:51:24.534Z,11.25
2018-07-26T03:52:24.486Z,11.25
2018-07-26T03:53:24.486Z,16.88
2018-07-26T03:54:24.487Z,16.88
2018-07-26T03:55:24.492Z,16.88
2018-07-26T03:56:24.492Z,16.88
2018-07-26T03:57:24.492Z,22.50
2018-07-26T03:58:24.496Z,22.50
2018-07-26T03:59:24.488Z,22.50
2018-07-26T04:00:24.490Z,22.50
2018-07-26T04:01:24.489Z,28.13
2018-07-26T04:02:24.489Z,28.13
2018-07-26T04:03:24.538Z,28.13
2018-07-26T04:04:24.495Z,33.75
2018-07-26T04:05:24.496Z,33.75
2018-07-26T04:06:24.491Z,39.38
2018-07-26T04:07:24.497Z,39.38
2018-07-26T04:08:24.496Z,39.38
2018-07-26T04:09:24.498Z,45.00
2018-07-26T04:10:24.499Z,45.00
2018-07-26T04:11:24.495Z,50.63
2018-07-26T04:12:24.499Z,50.63
2018-07-26T04:13:24.503Z,50.63
2018-07-26T04:14:24.500Z,56.25
2018-07-26T04:15:24.496Z,56.25
2018-07-26T04:16:24.497Z,61.88
2018-07-26T04:17:24.497Z,61.88
2018-07-26T04:18:24.498Z,67.50
2018-07-26T04:19:24.504Z,67.50
2018-07-26T04:20:24.505Z,73.13
2018-07-26T04:21:24.500Z,73.13
2018-07-26T04:22:24.500Z,78.75
2018-07-26T04:23:24.506Z,78.75
2018-07-26T04:24:24.507Z,84.38
2018-07-26T04:25:24.507Z,84.38
2018-07-26T04:26:24.509Z,90.00
2018-07-26T04:27:24.504Z,95.63
2018-07-26T04:28:24.504Z,95.63
2018-07-26T04:29:24.504Z,101.25
2018-07-26T04:30:24.504Z,101.25
2018-07-26T04:31:24.509Z,106.88
2018-07-26T04:32:24.513Z,112.50
2018-07-26T04:33:24.511Z,112.50
2018-07-26T04:34:24.512Z,118.13
2018-07-26T04:35:24.508Z,118.13
2018-07-26T04:36:24.508Z,118.13
2018-07-26T04:37:24.515Z,123.75
2018-07-26T04:38:24.514Z,123.75
2018-07-26T04:39:24.511Z,135.00
2018-07-26T04:40:24.512Z,135.00
2018-07-26T04:41:24.511Z,140.63
2018-07-26T04:42:24.512Z,140.63
2018-07-26T04:43:24.516Z,146.25
2018-07-26T04:44:24.519Z,151.88
2018-07-26T04:45:24.519Z,157.50
2018-07-26T04:46:24.519Z,157.50
2018-07-26T04:47:24.516Z,163.13
2018-07-26T04:48:24.517Z,174.38
2018-07-26T04:49:24.518Z,180.00
2018-07-26T04:50:24.518Z,208.13
2018-07-26T04:51:24.525Z,241.88
2018-07-26T04:52:24.526Z,247.50
2018-07-26T04:53:24.522Z,258.75
2018-07-26T04:54:24.522Z,270.00
2018-07-26T04:55:24.533Z,275.63
2018-07-26T04:56:24.531Z,286.88
2018-07-26T04:57:24.531Z,303.75
2018-07-26T04:58:24.531Z,309.38
2018-07-26T04:59:24.530Z,331.88
2018-07-26T05:00:24.531Z,343.13
2018-07-26T05:01:24.533Z,354.38
2018-07-26T05:02:24.534Z,371.25
2018-07-26T05:03:24.540Z,376.88
2018-07-26T05:04:24.544Z,388.13
2018-07-26T05:05:24.563Z,393.75
2018-07-26T05:06:24.547Z,410.63
2018-07-26T05:07:24.546Z,421.88
2018-07-26T05:08:24.548Z,433.13
2018-07-26T05:09:24.556Z,444.38
2018-07-26T05:10:24.557Z,450.00
2018-07-26T05:11:24.556Z,461.25
2018-07-26T05:12:24.558Z,466.88
2018-07-26T05:13:24.563Z,478.13
2018-07-26T05:14:24.566Z,495.00
2018-07-26T05:15:24.580Z,506.25
2018-07-26T05:16:24.575Z,511.88
2018-07-26T05:17:24.581Z,528.75
2018-07-26T05:18:24.594Z,528.75
2018-07-26T05:19:24.582Z,540.00
2018-07-26T05:20:24.586Z,545.63
2018-07-26T05:21:24.593Z,556.88
2018-07-26T05:22:24.593Z,568.13
2018-07-26T05:23:24.602Z,579.38
2018-07-26T05:24:24.608Z,590.63
2018-07-26T05:25:24.614Z,613.13
2018-07-26T05:26:24.612Z,618.75
2018-07-26T05:27:24.621Z,624.38
2018-07-26T05:28:24.626Z,635.63
2018-07-26T05:29:24.634Z,658.13
2018-07-26T05:30:24.650Z,658.13
2018-07-26T05:31:24.635Z,663.75
2018-07-26T05:32:24.641Z,680.63
2018-07-26T05:33:24.647Z,691.88
2018-07-26T05:34:24.652Z,703.13
2018-07-26T05:35:24.663Z,703.13
2018-07-26T05:36:24.667Z,528.75
2018-07-26T05:37:24.686Z,483.75
2018-07-26T05:38:24.678Z,450.00
2018-07-26T05:39:24.680Z,455.63
2018-07-26T05:40:24.685Z,523.13
2018-07-26T05:41:24.695Z,652.50
2018-07-26T05:42:24.700Z,765.00
2018-07-26T05:43:24.702Z,781.88
2018-07-26T05:44:24.708Z,776.25
2018-07-26T05:45:24.714Z,748.13
2018-07-26T05:46:24.719Z,725.63
2018-07-26T05:47:24.733Z,753.75
2018-07-26T05:48:24.737Z,686.25
2018-07-26T05:49:24.743Z,601.88
2018-07-26T05:50:24.749Z,590.63
2018-07-26T05:51:24.750Z,523.13
2018-07-26T05:52:24.757Z,523.13
2018-07-26T05:53:24.912Z,517.50
2018-07-26T05:54:24.775Z,472.50
2018-07-26T05:55:24.781Z,444.38
2018-07-26T05:56:24.788Z,466.88
2018-07-26T05:57:24.789Z,489.38
2018-07-26T05:58:24.795Z,562.50
2018-07-26T05:59:24.807Z,556.88
2018-07-26T06:00:24.813Z,635.63
2018-07-26T06:01:24.821Z,579.38
2018-07-26T06:02:24.829Z,573.75
2018-07-26T06:03:24.831Z,579.38
2018-07-26T06:04:24.834Z,601.88
2018-07-26T06:05:24.842Z,630.00
2018-07-26T06:06:24.847Z,680.63
2018-07-26T06:07:24.858Z,736.88
2018-07-26T06:08:24.864Z,776.25
2018-07-26T06:09:24.870Z,838.13
2018-07-26T06:10:24.878Z,849.38
2018-07-26T06:11:24.877Z,832.50
2018-07-26T06:12:24.884Z,731.25
2018-07-26T06:13:24.894Z,725.63
2018-07-26T06:14:24.900Z,680.63
2018-07-26T06:15:24.902Z,669.38
2018-07-26T06:16:24.911Z,663.75
2018-07-26T06:17:24.917Z,663.75
2018-07-26T06:18:24.938Z,708.75
2018-07-26T06:19:24.934Z,826.88
2018-07-26T06:20:24.941Z,821.25
2018-07-26T06:21:24.945Z,826.88
2018-07-26T06:22:24.955Z,905.63
2018-07-26T06:23:24.953Z,1243.13
2018-07-26T06:24:24.959Z,1423.13
2018-07-26T06:25:24.967Z,1136.25
2018-07-26T06:26:24.973Z,821.25
2018-07-26T06:27:24.989Z,939.38
2018-07-26T06:28:24.995Z,1170.00
2018-07-26T06:29:24.994Z,916.88
2018-07-26T06:30:25.000Z,720.00
2018-07-26T06:31:25.016Z,725.63
2018-07-26T06:32:25.021Z,731.25
2018-07-26T06:33:25.101Z,731.25
2018-07-26T06:34:25.036Z,843.75
2018-07-26T06:35:25.039Z,826.88
2018-07-26T06:36:25.045Z,860.63
2018-07-26T06:37:25.054Z,900.00
2018-07-26T06:38:25.061Z,973.13
2018-07-26T06:39:25.137Z,838.13
2018-07-26T06:40:25.080Z,843.75
2018-07-26T06:41:25.089Z,838.13
2018-07-26T06:42:25.096Z,843.75
2018-07-26T06:43:25.098Z,866.25
2018-07-26T06:44:25.106Z,826.88
2018-07-26T06:45:25.119Z,793.13
2018-07-26T06:46:25.127Z,748.13
2018-07-26T06:47:25.129Z,714.38
2018-07-26T06:48:25.136Z,686.25
2018-07-26T06:49:25.144Z,680.63
2018-07-26T06:50:25.151Z,691.88
2018-07-26T06:51:25.164Z,703.13
2018-07-26T06:52:25.172Z,714.38
2018-07-26T06:53:25.180Z,714.38
2018-07-26T06:54:25.186Z,725.63
2018-07-26T06:55:25.190Z,725.63
2018-07-26T06:56:25.197Z,720.00
2018-07-26T06:57:25.206Z,725.63
2018-07-26T06:58:25.213Z,736.88
2018-07-26T06:59:25.225Z,748.13
2018-07-26T07:00:25.232Z,770.63
2018-07-26T07:01:25.236Z,787.50
2018-07-26T07:02:25.241Z,798.75
2018-07-26T07:03:25.255Z,810.00
2018-07-26T07:04:25.262Z,815.63
2018-07-26T07:05:25.269Z,843.75
2018-07-26T07:06:25.275Z,871.88
2018-07-26T07:07:25.278Z,922.50
2018-07-26T07:08:25.289Z,961.88
2018-07-26T07:09:25.295Z,990.00
2018-07-26T07:10:25.303Z,1018.13
2018-07-26T07:11:25.313Z,1040.63
2018-07-26T07:12:25.319Z,1113.75
2018-07-26T07:13:25.328Z,1226.25
2018-07-26T07:14:25.335Z,1350.00
2018-07-26T07:15:25.337Z,1305.00
2018-07-26T07:16:25.346Z,1276.88
2018-07-26T07:17:25.357Z,1355.63
2018-07-26T07:18:25.365Z,1468.13
2018-07-26T07:19:25.371Z,1580.63
2018-07-26T07:20:25.420Z,1816.88
2018-07-26T07:21:25.384Z,1575.00
2018-07-26T07:22:25.392Z,1485.00
2018-07-26T07:23:25.405Z,1518.75
2018-07-26T07:24:25.415Z,1546.88
2018-07-26T07:25:25.423Z,1524.38
2018-07-26T07:26:25.432Z,1648.13
2018-07-26T07:27:25.435Z,1614.38
2018-07-26T07:28:25.450Z,1642.50
2018-07-26T07:29:25.476Z,1541.25
2018-07-26T07:30:25.465Z,1417.50
2018-07-26T07:31:25.478Z,1400.63
2018-07-26T07:32:25.489Z,1406.25
2018-07-26T07:33:25.494Z,1423.13
2018-07-26T07:34:25.506Z,1468.13
2018-07-26T07:35:25.535Z,1440.00
2018-07-26T07:36:25.535Z,1546.88
2018-07-26T07:37:25.540Z,1625.63
2018-07-26T07:38:25.550Z,1738.13
2018-07-26T07:39:25.555Z,1766.25
2018-07-26T07:40:25.565Z,2064.38
2018-07-26T07:41:25.595Z,2143.13
2018-07-26T07:42:25.587Z,1895.63
2018-07-26T07:43:25.603Z,2025.00
2018-07-26T07:44:25.614Z,2025.00
2018-07-26T07:45:25.625Z,1968.75
2018-07-26T07:46:25.636Z,1940.63
2018-07-26T07:47:25.713Z,2688.75
2018-07-26T07:48:25.655Z,3183.75
2018-07-26T07:49:25.672Z,3976.88
2018-07-26T07:50:25.682Z,4584.38
2018-07-26T07:51:25.690Z,4365.00
2018-07-26T07:52:25.702Z,4230.00
2018-07-26T07:53:25.717Z,4280.63
2018-07-26T07:54:25.728Z,4359.38
2018-07-26T07:55:25.747Z,4370.63
2018-07-26T07:56:25.761Z,4263.75
2018-07-26T07:57:25.775Z,4297.50
2018-07-26T07:58:25.787Z,4325.63
2018-07-26T07:59:25.876Z,4438.13
2018-07-26T08:00:25.813Z,4730.63
2018-07-26T08:01:25.828Z,4933.13
2018-07-26T08:02:25.844Z,4899.38
2018-07-26T08:03:25.864Z,4758.75
2018-07-26T08:04:25.883Z,4730.63
2018-07-26T08:05:25.956Z,4820.63
2018-07-26T08:06:25.908Z,4961.25
2018-07-26T08:07:25.929Z,4966.88
2018-07-26T08:08:25.948Z,5203.13
2018-07-26T08:09:25.965Z,5085.00
2018-07-26T08:10:25.981Z,4646.25
2018-07-26T08:11:25.997Z,4736.25
2018-07-26T08:12:26.012Z,5265.00
2018-07-26T08:13:26.031Z,5073.75
2018-07-26T08:14:26.047Z,4477.50
2018-07-26T08:15:26.071Z,4741.88
2018-07-26T08:16:26.088Z,4966.88
2018-07-26T08:17:26.107Z,4584.38
2018-07-26T08:18:26.126Z,4426.88
2018-07-26T08:19:26.139Z,4522.50
2018-07-26T08:20:26.159Z,4511.25
2018-07-26T08:21:26.249Z,4381.88
2018-07-26T08:22:26.199Z,4111.88
2018-07-26T08:23:26.216Z,4055.63
2018-07-26T08:24:26.237Z,3943.13
2018-07-26T08:25:26.254Z,3813.75
2018-07-26T08:26:26.272Z,3746.25
2018-07-26T08:27:26.295Z,3763.13
2018-07-26T08:28:26.319Z,3937.50
2018-07-26T08:29:26.405Z,4061.25
2018-07-26T08:30:26.353Z,3881.25
2018-07-26T08:31:26.371Z,3588.75
2018-07-26T08:32:26.391Z,3628.13
2018-07-26T08:33:26.408Z,4100.63
2018-07-26T08:34:26.426Z,4595.63
2018-07-26T08:35:26.451Z,4336.88
2018-07-26T08:36:26.471Z,3864.38
2018-07-26T08:37:26.487Z,3583.13
2018-07-26T08:38:26.507Z,3684.38
2018-07-26T08:39:26.540Z,3802.50
2018-07-26T08:40:26.554Z,3667.50
2018-07-26T08:41:26.574Z,3594.38
2018-07-26T08:42:26.594Z,3628.13
2018-07-26T08:43:26.610Z,3504.38
2018-07-26T08:44:26.637Z,3346.88
2018-07-26T08:45:26.653Z,3318.75
2018-07-26T08:46:26.672Z,3498.75
2018-07-26T08:47:26.698Z,3487.50
2018-07-26T08:48:26.721Z,3346.88
2018-07-26T08:49:26.741Z,3341.25
2018-07-26T08:50:26.760Z,3380.63
2018-07-26T08:51:26.779Z,3453.75
2018-07-26T08:52:26.799Z,3436.88
2018-07-26T08:53:26.826Z,3420.00
2018-07-26T08:54:26.850Z,3408.75
2018-07-26T08:55:26.863Z,3397.50
2018-07-26T08:56:26.887Z,3448.13
2018-07-26T08:57:26.912Z,3391.88
2018-07-26T08:58:26.928Z,3071.25
2018-07-26T08:59:26.955Z,3060.00
2018-07-26T09:00:26.976Z,3436.88
2018-07-26T09:01:27.004Z,3470.63
2018-07-26T09:02:27.020Z,3498.75
2018-07-26T09:03:27.036Z,3600.00
2018-07-26T09:04:27.062Z,3555.00
2018-07-26T09:05:27.080Z,3408.75
2018-07-26T09:06:27.100Z,3335.63
2018-07-26T09:07:27.127Z,3346.88
2018-07-26T09:08:27.148Z,3465.00
2018-07-26T09:09:27.166Z,3678.75
2018-07-26T09:10:27.191Z,3858.75
2018-07-26T09:11:27.250Z,3892.50
2018-07-26T09:12:27.234Z,3870.00
2018-07-26T09:13:27.299Z,3915.00
2018-07-26T09:14:27.278Z,4089.38
2018-07-26T09:15:27.295Z,4297.50
2018-07-26T09:16:27.316Z,4415.63
2018-07-26T09:17:27.339Z,4342.50
2018-07-26T09:18:27.358Z,4061.25
2018-07-26T09:19:27.387Z,3622.50
2018-07-26T09:20:27.406Z,3330.00
2018-07-26T09:21:27.428Z,3206.25
2018-07-26T09:22:27.448Z,3172.50
2018-07-26T09:23:27.467Z,3116.25
2018-07-26T09:24:27.508Z,3082.50
2018-07-26T09:25:27.519Z,3054.38
2018-07-26T09:26:27.534Z,3054.38
2018-07-26T09:27:27.551Z,3076.88
2018-07-26T09:28:27.574Z,3099.38
2018-07-26T09:29:27.595Z,3138.75
2018-07-26T09:30:27.618Z,3166.88
2018-07-26T09:31:27.644Z,3178.13
2018-07-26T09:32:27.666Z,3200.63
2018-07-26T09:33:27.687Z,3211.88
2018-07-26T09:34:27.707Z,3251.25
2018-07-26T09:35:27.762Z,3290.63
2018-07-26T09:36:27.748Z,3330.00
2018-07-26T09:37:27.770Z,3335.63
2018-07-26T09:38:27.792Z,3358.13
2018-07-26T09:39:27.819Z,3380.63
2018-07-26T09:40:27.845Z,3403.13
2018-07-26T09:41:27.859Z,3414.38
2018-07-26T09:42:27.883Z,3431.25
2018-07-26T09:43:27.908Z,3442.50
2018-07-26T09:44:27.929Z,3465.00
2018-07-26T09:45:27.952Z,3481.88
2018-07-26T09:46:27.974Z,3498.75
2018-07-26T09:47:28.063Z,3504.38
2018-07-26T09:48:28.026Z,3515.63
2018-07-26T09:49:28.073Z,3532.50
2018-07-26T09:50:28.062Z,3526.88
2018-07-26T09:51:28.087Z,3526.88
2018-07-26T09:52:28.111Z,3543.75
2018-07-26T09:53:28.134Z,3532.50
2018-07-26T09:54:28.154Z,3526.88
2018-07-26T09:55:28.172Z,3521.25
2018-07-26T09:56:28.196Z,3493.13
2018-07-26T09:57:28.223Z,3487.50
2018-07-26T09:58:28.243Z,3470.63
2018-07-26T09:59:28.261Z,3459.38
2018-07-26T10:00:28.405Z,3431.25
2018-07-26T10:01:28.305Z,3408.75
2018-07-26T10:02:28.334Z,3380.63
2018-07-26T10:03:28.354Z,3341.25
2018-07-26T10:04:28.376Z,3307.50
2018-07-26T10:05:28.399Z,3279.38
2018-07-26T10:06:28.420Z,3256.88
2018-07-26T10:07:28.441Z,3217.50
2018-07-26T10:08:28.463Z,3172.50
2018-07-26T10:09:28.484Z,3144.38
2018-07-26T10:10:28.507Z,3099.38
2018-07-26T10:11:28.533Z,3076.88
2018-07-26T10:12:28.556Z,3060.00
2018-07-26T10:13:28.573Z,3031.88
2018-07-26T10:14:28.595Z,2981.25
2018-07-26T10:15:28.623Z,2947.50
2018-07-26T10:16:28.645Z,2902.50
2018-07-26T10:17:28.667Z,2857.50
2018-07-26T10:18:28.688Z,2812.50
2018-07-26T10:19:28.706Z,2790.00
2018-07-26T10:20:28.733Z,2767.50
2018-07-26T10:21:28.751Z,2739.38
2018-07-26T10:22:28.774Z,2694.38
2018-07-26T10:23:28.802Z,2660.63
2018-07-26T10:24:28.823Z,2666.25
2018-07-26T10:25:28.847Z,2671.88
2018-07-26T10:26:28.870Z,2666.25
2018-07-26T10:27:28.887Z,2671.88
2018-07-26T10:28:28.912Z,2677.50
2018-07-26T10:29:28.937Z,2711.25
2018-07-26T10:30:28.960Z,2756.25
2018-07-26T10:31:28.976Z,3313.13
2018-07-26T10:32:29.000Z,4966.88
2018-07-26T10:33:29.022Z,5551.88
2018-07-26T10:34:29.045Z,5068.13
2018-07-26T10:35:29.072Z,4989.38
2018-07-26T10:36:29.095Z,4860.00
2018-07-26T10:37:29.118Z,4365.00
2018-07-26T10:38:29.139Z,4421.25
2018-07-26T10:39:29.161Z,4764.38
2018-07-26T10:40:29.181Z,4719.38
2018-07-26T10:41:29.203Z,4758.75
2018-07-26T10:42:29.224Z,4944.38
2018-07-26T10:43:29.251Z,4955.63
2018-07-26T10:44:29.278Z,4972.50
2018-07-26T10:45:29.294Z,4966.88
2018-07-26T10:46:29.333Z,4910.63
2018-07-26T10:47:29.342Z,4786.88
2018-07-26T10:48:29.365Z,4764.38
2018-07-26T10:49:29.388Z,4938.75
2018-07-26T10:50:29.414Z,4938.75
2018-07-26T10:51:29.430Z,4691.25
2018-07-26T10:52:29.454Z,4404.38
2018-07-26T10:53:29.475Z,4460.63
2018-07-26T10:54:29.496Z,4500.00
2018-07-26T10:55:29.524Z,4578.75
2018-07-26T10:56:29.548Z,4910.63
2018-07-26T10:57:29.568Z,5214.38
2018-07-26T10:58:29.589Z,5355.00
2018-07-26T10:59:29.607Z,5259.38
2018-07-26T11:00:29.636Z,5343.75
2018-07-26T11:01:29.659Z,5596.88
2018-07-26T11:02:29.677Z,5411.25
2018-07-26T11:03:29.698Z,5208.75
2018-07-26T11:04:29.717Z,5236.88
2018-07-26T11:05:29.740Z,5490.00
2018-07-26T11:06:29.761Z,5512.50
2018-07-26T11:07:29.787Z,5445.00
2018-07-26T11:08:29.808Z,5259.38
2018-07-26T11:09:29.845Z,5236.88
2018-07-26T11:10:29.851Z,5478.75
2018-07-26T11:11:29.869Z,5495.63
2018-07-26T11:12:29.890Z,5641.88
2018-07-26T11:13:29.912Z,5731.88
2018-07-26T11:14:29.932Z,5670.00
2018-07-26T11:15:29.959Z,5506.88
2018-07-26T11:16:29.995Z,5484.38
2018-07-26T11:17:29.997Z,5495.63
2018-07-26T11:18:30.019Z,5715.00
2018-07-26T11:19:30.048Z,5990.63
2018-07-26T11:20:30.066Z,5596.88
2018-07-26T11:21:30.088Z,5495.63
2018-07-26T11:22:30.108Z,5557.50
2018-07-26T11:23:30.123Z,5433.75
2018-07-26T11:24:30.145Z,5383.13
2018-07-26T11:25:30.199Z,5478.75
2018-07-26T11:26:30.183Z,5580.00
2018-07-26T11:27:30.209Z,5450.63
2018-07-26T11:28:30.228Z,3296.25
2018-07-26T11:29:30.275Z,967.50
2018-07-26T11:30:30.268Z,669.38
2018-07-26T11:31:30.280Z,641.25
2018-07-26T11:32:30.315Z,630.00
2018-07-26T11:33:30.322Z,618.75
2018-07-26T11:34:30.338Z,613.13
2018-07-26T11:35:30.356Z,607.50
2018-07-26T11:36:30.371Z,601.88
2018-07-26T11:37:30.388Z,596.25
2018-07-26T11:38:30.406Z,596.25
2018-07-26T11:39:30.426Z,590.63
2018-07-26T11:40:30.442Z,590.63
2018-07-26T11:41:30.466Z,590.63
2018-07-26T11:42:30.473Z,585.00
2018-07-26T11:43:30.485Z,579.38
2018-07-26T11:44:30.499Z,573.75
2018-07-26T11:45:30.515Z,573.75
2018-07-26T11:46:30.528Z,573.75
2018-07-26T11:47:30.549Z,568.13
2018-07-26T11:48:30.563Z,568.13
2018-07-26T11:49:30.573Z,568.13
2018-07-26T11:50:30.585Z,573.75
2018-07-26T11:51:30.604Z,568.13
2018-07-26T11:52:30.619Z,568.13
2018-07-26T11:53:30.632Z,568.13
2018-07-26T11:54:30.644Z,562.50
2018-07-26T11:55:30.654Z,568.13
2018-07-26T11:56:30.666Z,568.13
2018-07-26T11:57:30.679Z,562.50
2018-07-26T11:58:30.690Z,562.50
2018-07-26T11:59:30.707Z,562.50
2018-07-26T12:00:30.719Z,562.50
2018-07-26T12:01:30.773Z,562.50
2018-07-26T12:02:30.818Z,568.13
2018-07-26T12:03:30.750Z,568.13
2018-07-26T12:04:30.763Z,568.13
2018-07-26T12:05:30.779Z,573.75
2018-07-26T12:06:30.789Z,579.38
2018-07-26T12:07:30.800Z,585.00
2018-07-26T12:08:30.809Z,590.63
2018-07-26T12:09:30.819Z,596.25
2018-07-26T12:10:30.831Z,596.25
2018-07-26T12:11:30.845Z,601.88
2018-07-26T12:12:30.855Z,607.50
2018-07-26T12:13:30.867Z,613.13
2018-07-26T12:14:30.877Z,618.75
2018-07-26T12:15:30.884Z,618.75
2018-07-26T12:16:30.894Z,624.38
2018-07-26T12:17:30.906Z,635.63
2018-07-26T12:18:30.917Z,641.25
2018-07-26T12:19:30.971Z,658.13
2018-07-26T12:20:30.946Z,663.75
2018-07-26T12:21:30.949Z,675.00
2018-07-26T12:22:30.959Z,675.00
2018-07-26T12:23:30.979Z,691.88
2018-07-26T12:24:30.987Z,697.50
2018-07-26T12:25:30.996Z,708.75
2018-07-26T12:26:31.008Z,720.00
2018-07-26T12:27:31.013Z,731.25
2018-07-26T12:28:31.025Z,759.38
2018-07-26T12:29:31.035Z,793.13
2018-07-26T12:30:31.047Z,826.88
2018-07-26T12:31:31.061Z,855.00
2018-07-26T12:32:31.074Z,871.88
2018-07-26T12:33:31.086Z,894.38
2018-07-26T12:34:31.096Z,888.75
2018-07-26T12:35:31.104Z,877.50